Time;durP1;ratioP1;P1;durP2;ratioP2;P2;SDS_P1;SDS_P2;PMS_P1;PMS_P2;Temp;Humidity;BMP_temperature;BMP_pressure;BME280_temperature;BME280_humidity;BME280_pressure;Samples;Min_cycle;Max_cycle;Signal;HPM_P1;HPM_P2
2022/06/21 00:01:13;;;;;;;0.00;0.00;;;8.70;99.90;;;;;;4879310;29;20084;-84
2022/06/21 00:03:39;;;;;;;0.10;0.10;;;9.20;99.90;;;;;;4878616;29;20049;-84
2022/06/21 00:06:05;;;;;;;0.00;0.00;;;8.60;99.90;;;;;;4869479;29;20045;-84
2022/06/21 00:08:34;;;;;;;0.00;0.00;;;8.60;99.90;;;;;;4873220;29;20041;-83
2022/06/21 00:11:00;;;;;;;0.10;0.10;;;8.60;99.90;;;;;;4878764;29;20052;-85
2022/06/21 00:13:30;;;;;;;0.10;0.10;;;8.50;99.90;;;;;;4879954;29;20036;-85
2022/06/21 00:16:07;;;;;;;0.00;0.00;;;8.50;99.90;;;;;;4897064;29;20052;-85
2022/06/21 00:18:35;;;;;;;0.00;0.00;;;8.50;99.90;;;;;;4876773;29;20172;-85
2022/06/21 00:21:01;;;;;;;0.10;0.10;;;8.40;99.90;;;;;;4881015;29;20487;-85
2022/06/21 00:23:31;;;;;;;0.00;0.00;;;8.50;99.90;;;;;;4896058;29;20041;-85
2022/06/21 00:25:58;;;;;;;0.00;0.00;;;8.40;99.90;;;;;;4893218;29;20040;-83
2022/06/21 00:28:25;;;;;;;0.50;0.50;;;8.40;99.90;;;;;;4894329;29;20052;-83
2022/06/21 00:30:52;;;;;;;0.00;0.00;;;8.40;99.90;;;;;;4881977;29;20053;-83
2022/06/21 00:33:22;;;;;;;0.00;0.00;;;8.60;99.90;;;;;;4881745;29;20361;-83
2022/06/21 00:35:50;;;;;;;0.10;0.10;;;8.30;99.90;;;;;;4881217;29;20510;-82
2022/06/21 00:38:23;;;;;;;0.00;0.00;;;8.30;99.90;;;;;;4875311;29;20037;-83
2022/06/21 00:40:48;;;;;;;0.03;0.03;;;8.30;99.90;;;;;;4897038;29;20428;-83
2022/06/21 00:43:21;;;;;;;0.00;0.00;;;8.40;99.90;;;;;;4881569;29;20037;-83
2022/06/21 00:45:49;;;;;;;0.00;0.00;;;9.00;99.90;;;;;;4897396;29;20120;-83
2022/06/21 00:48:23;;;;;;;0.10;0.10;;;8.50;99.90;;;;;;4897484;29;20047;-83
2022/06/21 00:50:54;;;;;;;0.00;0.00;;;8.30;99.90;;;;;;4891247;29;20060;-83
2022/06/21 00:53:47;;;;;;;0.10;0.10;;;8.30;99.90;;;;;;4897351;29;20076;-83
2022/06/21 00:56:36;;;;;;;0.10;0.10;;;8.20;99.90;;;;;;4893459;29;20060;-83
2022/06/21 00:59:25;;;;;;;0.20;0.20;;;8.20;99.90;;;;;;4898234;29;20131;-83
2022/06/21 01:01:56;;;;;;;0.00;0.00;;;8.20;99.90;;;;;;4876899;29;20044;-85
2022/06/21 01:04:28;;;;;;;0.00;0.00;;;8.20;99.90;;;;;;4881558;29;20492;-84
2022/06/21 01:06:57;;;;;;;0.10;0.10;;;8.10;99.90;;;;;;4884168;29;20161;-84
2022/06/21 01:09:49;;;;;;;0.25;0.25;;;8.10;99.90;;;;;;4893094;29;20044;-85
2022/06/21 01:12:20;;;;;;;0.00;0.00;;;8.10;99.90;;;;;;4881212;29;20401;-84
2022/06/21 01:14:57;;;;;;;0.10;0.10;;;8.00;99.90;;;;;;4867784;29;20053;-84
2022/06/21 01:17:25;;;;;;;0.10;0.10;;;8.00;99.90;;;;;;4872964;29;20462;-85
2022/06/21 01:19:59;;;;;;;0.00;0.00;;;8.10;99.90;;;;;;4899260;29;20108;-84
2022/06/21 01:22:49;;;;;;;0.00;0.00;;;8.00;99.90;;;;;;4899287;29;20454;-84
2022/06/21 01:25:41;;;;;;;0.00;0.00;;;8.00;99.90;;;;;;4898383;29;20051;-85
2022/06/21 01:28:08;;;;;;;0.20;0.17;;;8.10;99.90;;;;;;4884337;29;20060;-84
2022/06/21 01:30:35;;;;;;;0.00;0.00;;;8.00;99.90;;;;;;4891874;29;20436;-84
2022/06/21 01:33:02;;;;;;;0.13;0.13;;;8.00;99.90;;;;;;4888433;29;20449;-84
2022/06/21 01:35:52;;;;;;;0.00;0.00;;;8.00;99.90;;;;;;4892712;29;20105;-84
2022/06/21 01:38:22;;;;;;;0.00;0.00;;;7.90;99.90;;;;;;4867876;29;20395;-84
2022/06/21 01:40:52;;;;;;;0.10;0.10;;;7.80;99.90;;;;;;4898014;29;20048;-84
2022/06/21 01:43:26;;;;;;;0.10;0.10;;;8.00;99.90;;;;;;4898858;29;20047;-84
2022/06/21 01:46:03;;;;;;;0.00;0.00;;;7.90;99.90;;;;;;4899371;29;20051;-85
2022/06/21 01:48:51;;;;;;;0.00;0.00;;;7.90;99.90;;;;;;4899520;29;20464;-84
2022/06/21 01:51:27;;;;;;;0.10;0.10;;;7.80;99.90;;;;;;4882687;29;20037;-84
2022/06/21 01:53:54;;;;;;;0.10;0.10;;;7.80;99.90;;;;;;4884155;29;20036;-84
2022/06/21 01:56:25;;;;;;;0.13;0.13;;;7.70;99.90;;;;;;4896108;29;20040;-84
2022/06/21 01:58:57;;;;;;;0.10;0.10;;;7.70;99.90;;;;;;4884551;29;20065;-84
2022/06/21 02:01:49;;;;;;;0.13;0.13;;;7.70;99.90;;;;;;4864873;29;20049;-84
2022/06/21 02:04:20;;;;;;;0.28;0.20;;;7.70;99.90;;;;;;4880725;29;20519;-84
2022/06/21 02:06:47;;;;;;;0.00;0.00;;;7.80;99.90;;;;;;4881046;29;20048;-84
2022/06/21 02:09:24;;;;;;;0.00;0.00;;;8.40;99.90;;;;;;4865291;29;20450;-84
2022/06/21 02:12:03;;;;;;;0.10;0.10;;;7.90;99.90;;;;;;4896157;29;20044;-84
2022/06/21 02:14:31;;;;;;;0.00;0.00;;;8.00;99.90;;;;;;4899610;29;20050;-84
2022/06/21 02:16:59;;;;;;;0.00;0.00;;;8.00;99.90;;;;;;4899759;29;20089;-84
2022/06/21 02:19:32;;;;;;;0.03;0.03;;;8.00;99.90;;;;;;4898264;29;20488;-85
2022/06/21 02:21:57;;;;;;;0.17;0.17;;;8.10;99.90;;;;;;4876511;29;20045;-84
2022/06/21 02:24:28;;;;;;;0.00;0.00;;;8.20;99.90;;;;;;4883491;29;20373;-85
2022/06/21 02:26:54;;;;;;;0.10;0.10;;;8.10;99.90;;;;;;4883677;29;20040;-85
2022/06/21 02:29:20;;;;;;;0.08;0.08;;;8.10;99.90;;;;;;4898709;29;20052;-85
2022/06/21 02:31:47;;;;;;;0.28;0.28;;;8.10;99.90;;;;;;4883321;29;20391;-85
2022/06/21 02:34:22;;;;;;;0.52;0.20;;;8.10;99.90;;;;;;4898813;29;20048;-85
2022/06/21 02:36:55;;;;;;;0.00;0.00;;;8.10;99.90;;;;;;4898927;29;20040;-85
2022/06/21 02:39:26;;;;;;;0.10;0.10;;;8.10;99.90;;;;;;4883595;29;20549;-85
2022/06/21 02:42:23;;;;;;;0.20;0.10;;;8.10;99.90;;;;;;4898500;29;20047;-84
2022/06/21 02:44:53;;;;;;;0.00;0.00;;;8.10;99.90;;;;;;4896472;29;20511;-84
2022/06/21 02:47:30;;;;;;;0.10;0.10;;;8.00;99.90;;;;;;4898969;29;20063;-84
2022/06/21 02:50:02;;;;;;;0.00;0.00;;;7.90;99.90;;;;;;4898961;29;20468;-84
2022/06/21 02:52:35;;;;;;;0.00;0.00;;;8.10;99.90;;;;;;4882447;29;20071;-84
2022/06/21 02:55:16;;;;;;;0.03;0.03;;;7.90;99.90;;;;;;4897783;29;20123;-84
2022/06/21 02:57:46;;;;;;;0.08;0.08;;;7.90;99.90;;;;;;4879330;29;20495;-84
2022/06/21 03:00:18;;;;;;;0.15;0.15;;;7.90;99.90;;;;;;4864205;29;20084;-84
2022/06/21 03:02:44;;;;;;;0.00;0.00;;;7.80;99.90;;;;;;4889117;29;20036;-84
2022/06/21 03:05:18;;;;;;;0.03;0.03;;;7.80;99.90;;;;;;4897837;29;20135;-85
2022/06/21 03:07:53;;;;;;;0.10;0.10;;;7.80;99.90;;;;;;4882443;29;20044;-84
2022/06/21 03:10:23;;;;;;;0.05;0.05;;;7.70;99.90;;;;;;4886869;29;20037;-84
2022/06/21 03:12:52;;;;;;;0.00;0.00;;;7.70;99.90;;;;;;4881241;29;20033;-83
2022/06/21 03:15:18;;;;;;;0.00;0.00;;;7.70;99.90;;;;;;4882524;29;20040;-83
2022/06/21 03:18:08;;;;;;;0.00;0.00;;;8.00;99.90;;;;;;4897821;29;20048;-82
2022/06/21 03:20:34;;;;;;;0.00;0.00;;;7.70;99.90;;;;;;4891772;29;20049;-82
2022/06/21 03:23:03;;;;;;;0.10;0.10;;;7.80;99.90;;;;;;4876493;29;20068;-83
2022/06/21 03:25:36;;;;;;;0.00;0.00;;;7.80;99.90;;;;;;4894772;29;20044;-82
2022/06/21 03:28:02;;;;;;;0.10;0.10;;;7.70;99.90;;;;;;4882596;29;20052;-83
2022/06/21 03:30:35;;;;;;;0.00;0.00;;;7.70;99.90;;;;;;4882605;29;20048;-84
2022/06/21 03:33:03;;;;;;;0.00;0.00;;;7.70;99.90;;;;;;4895705;29;20049;-84
2022/06/21 03:35:33;;;;;;;0.10;0.10;;;7.70;99.90;;;;;;4895341;29;20044;-84
2022/06/21 03:37:59;;;;;;;0.05;0.05;;;7.60;99.90;;;;;;4897290;29;20056;-84
2022/06/21 03:43:25;;;;;;;0.08;0.08;;;7.60;99.90;;;;;;4896377;29;20045;-84
2022/06/21 03:45:53;;;;;;;0.10;0.10;;;7.80;99.90;;;;;;4894832;29;20041;-83
2022/06/21 03:48:21;;;;;;;0.00;0.00;;;7.70;99.90;;;;;;4897321;29;20562;-82
2022/06/21 03:51:01;;;;;;;0.00;0.00;;;7.80;99.90;;;;;;4894935;29;20049;-83
2022/06/21 03:53:40;;;;;;;0.00;0.00;;;7.90;99.90;;;;;;4881008;29;20032;-83
2022/06/21 03:56:43;;;;;;;0.10;0.10;;;8.10;99.90;;;;;;4879453;29;20099;-82
2022/06/21 03:59:44;;;;;;;0.10;0.10;;;8.40;99.90;;;;;;4884621;23;20425;-84
2022/06/21 04:02:18;;;;;;;0.20;0.20;;;8.60;99.90;;;;;;4864830;29;20100;-84
2022/06/21 04:05:15;;;;;;;0.00;0.00;;;8.90;99.90;;;;;;4872030;29;20041;-85
2022/06/21 04:07:59;;;;;;;0.20;0.20;;;9.20;99.90;;;;;;4861299;29;20056;-85
2022/06/21 04:10:44;;;;;;;0.10;0.10;;;9.50;99.90;;;;;;4877288;29;20049;-85
2022/06/21 04:13:21;;;;;;;0.00;0.00;;;9.50;99.90;;;;;;4878124;29;20124;-85
2022/06/21 04:16:01;;;;;;;0.30;0.30;;;9.70;99.90;;;;;;4874781;29;20096;-85
2022/06/21 04:18:48;;;;;;;0.20;0.20;;;9.70;99.90;;;;;;4878241;29;20045;-85
2022/06/21 04:21:31;;;;;;;0.10;0.10;;;9.90;99.90;;;;;;4875442;29;20112;-85
2022/06/21 04:24:36;;;;;;;0.00;0.00;;;10.20;99.90;;;;;;4877402;29;20037;-85
2022/06/21 04:27:11;;;;;;;0.00;0.00;;;10.30;99.90;;;;;;4862539;29;20063;-85
2022/06/21 04:29:53;;;;;;;0.10;0.10;;;10.40;99.90;;;;;;4878723;29;20052;-85
2022/06/21 04:32:33;;;;;;;0.10;0.10;;;10.60;99.90;;;;;;4878721;29;20045;-85
2022/06/21 04:35:02;;;;;;;0.05;0.05;;;10.70;99.90;;;;;;4879325;29;20033;-85
2022/06/21 04:37:51;;;;;;;0.63;0.63;;;10.90;99.90;;;;;;4863507;29;20081;-83
2022/06/21 04:40:38;;;;;;;4.50;0.57;;;11.10;99.90;;;;;;4863799;29;20132;-83
2022/06/21 04:43:15;;;;;;;0.08;0.08;;;11.30;99.90;;;;;;4863497;29;20042;-83
2022/06/21 04:45:48;;;;;;;0.00;0.00;;;11.40;99.90;;;;;;4851852;29;20052;-83
2022/06/21 04:48:26;;;;;;;0.00;0.00;;;11.60;99.90;;;;;;4863345;29;20081;-83
2022/06/21 04:51:00;;;;;;;0.00;0.00;;;11.60;99.90;;;;;;4863998;29;20052;-83
2022/06/21 04:53:40;;;;;;;0.00;0.00;;;11.70;99.90;;;;;;4863661;29;20077;-83
2022/06/21 04:56:18;;;;;;;0.10;0.10;;;11.80;99.90;;;;;;4867972;29;20128;-83
2022/06/21 04:58:47;;;;;;;0.00;0.00;;;11.90;99.90;;;;;;4880198;29;20065;-83
2022/06/21 05:01:32;;;;;;;0.00;0.00;;;11.90;99.90;;;;;;4882309;29;20460;-83
2022/06/21 05:04:03;;;;;;;0.00;0.00;;;11.90;99.90;;;;;;4882184;29;20140;-83
2022/06/21 05:06:29;;;;;;;0.20;0.20;;;11.90;99.90;;;;;;4880472;29;20121;-82
2022/06/21 05:08:54;;;;;;;0.30;0.30;;;11.90;99.90;;;;;;4851123;29;20045;-83
2022/06/21 05:11:23;;;;;;;0.20;0.20;;;12.00;99.90;;;;;;4866229;29;20059;-86
2022/06/21 05:13:52;;;;;;;0.88;0.10;;;12.20;99.90;;;;;;4881436;29;20049;-86
2022/06/21 05:16:28;;;;;;;0.08;0.08;;;12.40;99.90;;;;;;4879612;29;20377;-86
2022/06/21 05:19:12;;;;;;;0.00;0.00;;;12.40;99.90;;;;;;4876690;29;20057;-86
2022/06/21 05:21:44;;;;;;;0.20;0.20;;;12.60;99.90;;;;;;4877477;29;20046;-85
2022/06/21 05:24:11;;;;;;;0.00;0.00;;;12.90;99.90;;;;;;4866900;29;20033;-85
2022/06/21 05:26:47;;;;;;;0.10;0.10;;;13.20;99.90;;;;;;4880002;29;20052;-85
2022/06/21 05:29:22;;;;;;;0.00;0.00;;;13.50;99.90;;;;;;4880948;29;20531;-85
2022/06/21 05:31:53;;;;;;;0.05;0.05;;;13.80;99.90;;;;;;4857178;29;20051;-84
2022/06/21 05:34:27;;;;;;;0.00;0.00;;;14.00;99.90;;;;;;4876958;29;20555;-84
2022/06/21 05:37:03;;;;;;;0.25;0.25;;;14.20;99.90;;;;;;4876036;29;20050;-84
2022/06/21 05:39:37;;;;;;;0.10;0.10;;;14.30;99.90;;;;;;4866717;29;20037;-84
2022/06/21 05:42:06;;;;;;;0.10;0.10;;;14.60;99.90;;;;;;4873945;29;20057;-84
2022/06/21 05:44:36;;;;;;;0.00;0.00;;;15.10;99.90;;;;;;4878616;29;20048;-85
2022/06/21 05:47:20;;;;;;;0.30;0.30;;;15.50;99.90;;;;;;4879496;29;20045;-85
2022/06/21 05:49:47;;;;;;;0.10;0.10;;;15.70;99.90;;;;;;4880655;29;20128;-85
2022/06/21 05:52:32;;;;;;;0.17;0.17;;;15.80;99.90;;;;;;4878744;29;20627;-85
2022/06/21 05:55:09;;;;;;;0.00;0.00;;;15.80;99.90;;;;;;4863338;29;20067;-85
2022/06/21 05:57:48;;;;;;;0.40;0.40;;;16.40;99.90;;;;;;4865565;29;20049;-85
2022/06/21 06:00:40;;;;;;;0.10;0.10;;;17.80;99.90;;;;;;4864217;29;20057;-85
2022/06/21 06:03:14;;;;;;;0.00;0.00;;;20.40;99.90;;;;;;4871417;29;20033;-85
2022/06/21 06:05:40;;;;;;;0.10;0.10;;;20.40;99.90;;;;;;4877762;29;20092;-85
2022/06/21 06:08:22;;;;;;;0.00;0.00;;;20.80;99.90;;;;;;4846652;29;20548;-85
2022/06/21 06:10:48;;;;;;;0.10;0.10;;;;;;;;;;4878841;29;20083;-85
2022/06/21 06:13:22;;;;;;;0.00;0.00;;;22.90;99.90;;;;;;4863762;29;20041;-86
2022/06/21 06:15:56;;;;;;;0.20;0.20;;;23.80;99.30;;;;;;4879921;29;20396;-85
2022/06/21 06:18:28;;;;;;;0.00;0.00;;;23.70;96.30;;;;;;4877142;29;20056;-86
2022/06/21 06:21:17;;;;;;;0.00;0.00;;;23.00;97.10;;;;;;4862259;29;20080;-86
2022/06/21 06:23:54;;;;;;;0.00;0.00;;;22.00;95.90;;;;;;4848187;29;20500;-86
2022/06/21 06:26:25;;;;;;;0.00;0.00;;;21.30;96.60;;;;;;4862596;29;20047;-86
2022/06/21 06:28:57;;;;;;;0.20;0.20;;;21.20;99.30;;;;;;4861802;29;20492;-86
2022/06/21 06:31:37;;;;;;;0.00;0.00;;;22.20;97.40;;;;;;4862019;29;20087;-86
2022/06/21 06:34:12;;;;;;;0.10;0.10;;;23.90;94.20;;;;;;4876910;29;20048;-86
2022/06/21 06:36:44;;;;;;;0.00;0.00;;;24.80;91.90;;;;;;4880703;29;20412;-86
2022/06/21 06:39:32;;;;;;;0.10;0.10;;;25.00;91.60;;;;;;4878679;29;20036;-86
2022/06/21 06:42:14;;;;;;;0.00;0.00;;;25.40;91.30;;;;;;4877924;29;20045;-86
2022/06/21 06:44:44;;;;;;;0.10;0.10;;;25.20;89.50;;;;;;4894744;29;20072;-86
2022/06/21 06:47:19;;;;;;;0.10;0.10;;;25.30;90.00;;;;;;4879591;29;20161;-86
2022/06/21 06:49:54;;;;;;;0.10;0.10;;;25.40;90.50;;;;;;4871835;29;20056;-86
2022/06/21 06:52:30;;;;;;;0.10;0.10;;;26.70;85.50;;;;;;4860108;29;20049;-85
2022/06/21 06:55:08;;;;;;;0.00;0.00;;;26.70;88.70;;;;;;4871685;29;20399;-86
2022/06/21 06:57:48;;;;;;;0.10;0.10;;;26.20;86.90;;;;;;4867178;29;20486;-86
2022/06/21 07:00:17;;;;;;;0.00;0.00;;;26.10;88.10;;;;;;4878441;29;20053;-86
2022/06/21 07:02:52;;;;;;;0.10;0.10;;;26.50;87.10;;;;;;4871016;29;20052;-86
2022/06/21 07:05:38;;;;;;;0.67;0.40;;;27.20;86.30;;;;;;4883348;29;20076;-86
2022/06/21 07:08:16;;;;;;;0.00;0.00;;;26.80;82.40;;;;;;4876828;29;20044;-87
2022/06/21 07:10:43;;;;;;;1.08;0.98;;;26.90;85.20;;;;;;4879904;29;20049;-87
2022/06/21 07:13:09;;;;;;;0.03;0.03;;;27.20;81.90;;;;;;4870730;29;20122;-87
2022/06/21 07:15:40;;;;;;;0.00;0.00;;;28.10;77.90;;;;;;4891648;29;20480;-87
2022/06/21 07:18:38;;;;;;;0.20;0.20;;;28.10;79.60;;;;;;4888427;29;20099;-87
2022/06/21 07:21:05;;;;;;;0.00;0.00;;;28.60;82.00;;;;;;4881209;29;20391;-87
2022/06/21 07:23:32;;;;;;;0.30;0.30;;;27.90;81.30;;;;;;4867096;29;20484;-85
2022/06/21 07:26:07;;;;;;;0.13;0.13;;;27.50;80.20;;;;;;4879419;29;20040;-85
2022/06/21 07:28:45;;;;;;;0.25;0.17;;;27.60;78.80;;;;;;4863858;29;20053;-85
2022/06/21 07:31:21;;;;;;;0.10;0.10;;;27.90;79.20;;;;;;4863755;29;20077;-85
2022/06/21 07:33:58;;;;;;;0.20;0.20;;;28.50;80.00;;;;;;4871786;29;20524;-85
2022/06/21 07:36:48;;;;;;;0.52;0.52;;;29.10;80.10;;;;;;4860648;29;20097;-85
2022/06/21 07:39:21;;;;;;;0.00;0.00;;;29.50;75.70;;;;;;4845088;29;20404;-86
2022/06/21 07:41:55;;;;;;;0.10;0.10;;;29.70;75.20;;;;;;4878649;29;20049;-87
2022/06/21 07:44:37;;;;;;;0.00;0.00;;;29.50;74.70;;;;;;4887756;29;20048;-87
2022/06/21 07:47:14;;;;;;;0.00;0.00;;;29.00;74.40;;;;;;4878667;29;20052;-87
2022/06/21 07:50:14;;;;;;;0.10;0.10;;;29.00;77.50;;;;;;4879896;29;20083;-87
2022/06/21 07:52:59;;;;;;;0.10;0.10;;;28.80;76.50;;;;;;4869050;29;20046;-87
2022/06/21 07:55:40;;;;;;;0.10;0.10;;;27.50;76.10;;;;;;4852957;29;20069;-87
2022/06/21 07:58:12;;;;;;;0.00;0.00;;;26.30;77.40;;;;;;4878537;29;20057;-87
2022/06/21 08:09:08;;;;;;;0.00;0.00;;;28.70;76.30;;;;;;4874918;29;20061;-87
2022/06/21 08:11:38;;;;;;;0.20;0.20;;;27.90;74.90;;;;;;4844845;29;20053;-87
2022/06/21 08:14:06;;;;;;;0.47;0.47;;;26.50;75.50;;;;;;4877074;29;20056;-87
2022/06/21 08:16:37;;;;;;;0.00;0.00;;;25.20;77.50;;;;;;4878660;29;20049;-87
2022/06/21 08:19:54;;;;;;;0.10;0.10;;;25.40;80.60;;;;;;4878505;29;20492;-88
2022/06/21 08:22:29;;;;;;;0.22;0.10;;;26.60;81.30;;;;;;4878050;29;20049;-88
2022/06/21 08:24:56;;;;;;;0.10;0.10;;;27.70;75.90;;;;;;4862828;29;20045;-88
2022/06/21 08:27:48;;;;;;;0.22;0.08;;;28.80;74.20;;;;;;4876232;29;20497;-88
2022/06/21 08:30:21;;;;;;;0.08;0.08;;;29.80;74.70;;;;;;4878363;29;20407;-88
2022/06/21 08:33:08;;;;;;;0.10;0.10;;;30.70;75.20;;;;;;4870806;29;20050;-88
2022/06/21 08:35:49;;;;;;;0.10;0.10;;;30.50;71.30;;;;;;4859741;29;20061;-87
2022/06/21 08:38:44;;;;;;;0.10;0.10;;;28.50;71.00;;;;;;4860074;29;20056;-87
2022/06/21 08:44:42;;;;;;;0.10;0.10;;;27.30;75.20;;;;;;4860045;29;20081;-87
2022/06/21 08:47:23;;;;;;;0.10;0.10;;;27.70;75.50;;;;;;4857436;29;20057;-87
2022/06/21 08:49:55;;;;;;;0.00;0.00;;;28.50;75.20;;;;;;4860705;29;20119;-87
2022/06/21 08:52:26;;;;;;;0.00;0.00;;;29.40;71.40;;;;;;4860333;29;20057;-87
2022/06/21 08:55:15;;;;;;;0.10;0.10;;;28.30;70.90;;;;;;4882498;29;20045;-87
2022/06/21 08:57:53;;;;;;;0.00;0.00;;;28.60;74.10;;;;;;4856120;29;20052;-87
2022/06/21 09:00:38;;;;;;;0.03;0.03;;;29.50;75.50;;;;;;4894013;29;20063;-87
2022/06/21 09:03:13;;;;;;;0.03;0.03;;;30.60;71.40;;;;;;4878792;29;20076;-85
2022/06/21 09:06:02;;;;;;;0.08;0.08;;;31.50;70.10;;;;;;4878011;29;20048;-85
2022/06/21 09:09:04;;;;;;;0.10;0.10;;;32.60;71.40;;;;;;4862109;29;20102;-85
2022/06/21 09:11:35;;;;;;;0.10;0.10;;;33.00;67.90;;;;;;4842520;29;20068;-87
2022/06/21 09:14:20;;;;;;;0.17;0.10;;;33.00;68.60;;;;;;4872537;29;20089;-87
2022/06/21 09:17:12;;;;;;;0.15;0.15;;;30.80;67.10;;;;;;4877863;29;20045;-88
2022/06/21 09:19:58;;;;;;;0.10;0.10;;;29.70;69.60;;;;;;4892004;29;20057;-87
2022/06/21 09:22:53;;;;;;;0.10;0.03;;;28.20;69.80;;;;;;4896983;29;20499;-87
2022/06/21 09:25:44;;;;;;;0.00;0.00;;;27.50;70.40;;;;;;4848777;29;20428;-87
2022/06/21 09:28:31;;;;;;;0.08;0.05;;;27.80;74.20;;;;;;4864943;29;20084;-87
2022/06/21 09:31:04;;;;;;;0.00;0.00;;;28.60;72.60;;;;;;4880441;29;20089;-86
2022/06/21 09:33:54;;;;;;;2.58;0.70;;;29.60;71.90;;;;;;4881421;29;20086;-87
2022/06/21 09:36:39;;;;;;;0.00;0.00;;;29.50;68.70;;;;;;4862599;29;20047;-87
2022/06/21 09:39:21;;;;;;;0.00;0.00;;;29.70;71.10;;;;;;4862668;29;20045;-87
2022/06/21 09:41:58;;;;;;;0.05;0.05;;;31.10;70.30;;;;;;4863334;29;20045;-87
2022/06/21 09:44:48;;;;;;;0.60;0.20;;;31.70;66.70;;;;;;4863207;29;20049;-87
2022/06/21 09:47:28;;;;;;;0.08;0.08;;;32.50;66.90;;;;;;4847616;29;20064;-87
2022/06/21 09:50:18;;;;;;;0.08;0.08;;;32.70;66.20;;;;;;4860863;29;20120;-87
2022/06/21 09:53:17;;;;;;;0.25;0.25;;;31.90;66.00;;;;;;4865985;29;20041;-87
2022/06/21 09:56:10;;;;;;;0.10;0.10;;;29.90;66.10;;;;;;4880761;29;20056;-87
2022/06/21 09:59:01;;;;;;;0.10;0.10;;;29.50;68.40;;;;;;4880271;29;20089;-87
2022/06/21 10:01:34;;;;;;;0.03;0.03;;;30.40;68.00;;;;;;4877668;29;20041;-87
2022/06/21 10:04:08;;;;;;;0.10;0.10;;;30.60;67.20;;;;;;4847298;29;20046;-87
2022/06/21 10:06:48;;;;;;;1.60;0.45;;;29.50;67.80;;;;;;4861887;29;20049;-87
2022/06/21 10:09:42;;;;;;;0.00;0.00;;;27.90;67.60;;;;;;4865312;29;20495;-87
2022/06/21 10:12:35;;;;;;;0.00;0.00;;;28.30;69.80;;;;;;4880756;29;20045;-87
2022/06/21 10:15:03;;;;;;;0.10;0.10;;;28.30;69.50;;;;;;4880766;29;20104;-87
2022/06/21 10:17:31;;;;;;;0.65;0.65;;;28.70;68.00;;;;;;4880228;29;20123;-87
2022/06/21 10:20:26;;;;;;;0.00;0.00;;;29.80;69.30;;;;;;4880433;29;20373;-87
2022/06/21 10:23:16;;;;;;;0.00;0.00;;;31.10;68.90;;;;;;4880319;29;20540;-87
2022/06/21 10:26:17;;;;;;;0.10;0.10;;;31.30;66.90;;;;;;4885353;29;20132;-87
2022/06/21 10:29:14;;;;;;;0.00;0.00;;;32.20;67.40;;;;;;4889912;29;20476;-87
2022/06/21 10:31:54;;;;;;;0.00;0.00;;;31.70;63.20;;;;;;4878739;29;20178;-87
2022/06/21 10:34:23;;;;;;;0.38;0.32;;;31.00;63.70;;;;;;4879540;29;20132;-87
2022/06/21 10:37:01;;;;;;;0.00;0.00;;;30.60;65.30;;;;;;4873554;29;20425;-87
2022/06/21 10:39:33;;;;;;;0.00;0.00;;;31.10;69.70;;;;;;4877784;29;20037;-86
2022/06/21 10:45:05;;;;;;;0.00;0.00;;;29.70;64.60;;;;;;4877758;29;20045;-87
2022/06/21 10:48:08;;;;;;;0.00;0.00;;;30.10;67.00;;;;;;4873516;29;20111;-87
2022/06/21 10:51:11;;;;;;;0.00;0.00;;;31.10;66.10;;;;;;4880099;29;20473;-87
2022/06/21 10:54:17;;;;;;;0.00;0.00;;;31.80;63.70;;;;;;4864751;29;20048;-87
2022/06/21 10:57:10;;;;;;;0.00;0.00;;;30.90;63.50;;;;;;4895028;29;20059;-87
2022/06/21 11:02:39;;;;;;;0.00;0.00;;;31.40;63.80;;;;;;4871794;29;20507;-87
2022/06/21 11:05:19;;;;;;;0.00;0.00;;;31.40;63.60;;;;;;4861199;29;20396;-85
2022/06/21 11:08:20;;;;;;;0.10;0.10;;;30.30;64.00;;;;;;4863842;29;22068;-86
2022/06/21 11:11:11;;;;;;;0.15;0.15;;;29.00;66.40;;;;;;4879842;29;20654;-86
2022/06/21 11:13:46;;;;;;;0.20;0.10;;;29.50;69.40;;;;;;4863754;29;20045;-85
2022/06/21 11:16:15;;;;;;;0.20;0.10;;;30.50;65.90;;;;;;4879188;29;20044;-87
2022/06/21 11:19:06;;;;;;;0.08;0.08;;;31.00;64.10;;;;;;4863679;29;20049;-87
2022/06/21 11:22:11;;;;;;;0.10;0.10;;;31.30;63.30;;;;;;4863098;29;20040;-87
2022/06/21 11:24:58;;;;;;;0.28;0.20;;;31.30;64.20;;;;;;4877787;29;20048;-87
2022/06/21 11:27:49;;;;;;;0.00;0.00;;;31.60;62.40;;;;;;4864030;29;20041;-87
2022/06/21 11:30:29;;;;;;;0.28;0.22;;;31.90;61.90;;;;;;4876280;29;20103;-87
2022/06/21 11:32:54;;;;;;;0.00;0.00;;;32.10;60.80;;;;;;4877922;29;20403;-87
2022/06/21 11:35:49;;;;;;;0.00;0.00;;;32.30;62.00;;;;;;4877130;29;20041;-87
2022/06/21 11:38:32;;;;;;;0.03;0.03;;;31.80;60.00;;;;;;4863640;29;20045;-88
2022/06/21 11:44:24;;;;;;;0.00;0.00;;;32.00;62.40;;;;;;4910362;23;20137;-82
2022/06/21 11:46:57;;;;;;;0.00;0.00;;;32.20;60.10;;;;;;4878354;29;20076;-83
2022/06/21 11:49:47;;;;;;;0.20;0.20;;;31.90;61.10;;;;;;4878850;29;20049;-84
2022/06/21 11:52:43;;;;;;;0.00;0.00;;;31.70;61.60;;;;;;4864829;29;20060;-84
2022/06/21 11:55:14;;;;;;;0.10;0.10;;;31.90;60.80;;;;;;4852458;29;20057;-84
2022/06/21 11:58:08;;;;;;;0.00;0.00;;;32.10;61.60;;;;;;4875206;29;20040;-84
2022/06/21 12:00:53;;;;;;;1.90;1.67;;;32.20;60.50;;;;;;4878678;29;20441;-84
2022/06/21 12:03:44;;;;;;;0.17;0.13;;;32.00;59.90;;;;;;4863196;29;20136;-85
2022/06/21 12:06:19;;;;;;;0.10;0.10;;;32.00;61.10;;;;;;4877815;29;20045;-86
2022/06/21 12:08:56;;;;;;;0.00;0.00;;;32.10;59.80;;;;;;4860294;29;20052;-86
2022/06/21 12:11:49;;;;;;;0.00;0.00;;;32.20;61.80;;;;;;4891954;29;20044;-86
2022/06/21 12:14:17;;;;;;;0.10;0.10;;;32.20;59.30;;;;;;4880891;29;20107;-86
2022/06/21 12:17:00;;;;;;;0.10;0.10;;;32.00;59.80;;;;;;4878024;29;20135;-86
2022/06/21 12:19:37;;;;;;;0.10;0.10;;;31.60;60.60;;;;;;4874653;29;20128;-86
2022/06/21 12:22:06;;;;;;;0.00;0.00;;;31.50;61.00;;;;;;4876084;29;20041;-86
2022/06/21 12:24:33;;;;;;;0.00;0.00;;;31.20;59.60;;;;;;4878435;29;20100;-86
2022/06/21 12:26:59;;;;;;;0.32;0.28;;;31.20;60.50;;;;;;4857609;29;20120;-86
2022/06/21 12:29:25;;;;;;;0.35;0.35;;;31.10;61.60;;;;;;4875609;29;20127;-87
2022/06/21 12:31:55;;;;;;;0.20;0.20;;;31.20;61.10;;;;;;4878416;29;20052;-86
2022/06/21 12:34:47;;;;;;;0.10;0.10;;;31.30;61.20;;;;;;4863033;29;20041;-86
2022/06/21 12:37:25;;;;;;;0.20;0.15;;;31.30;61.10;;;;;;4877544;29;20090;-86
2022/06/21 12:39:59;;;;;;;0.00;0.00;;;31.20;60.90;;;;;;4878317;29;20155;-85
2022/06/21 12:42:50;;;;;;;0.10;0.10;;;31.40;62.50;;;;;;4878712;29;20424;-85
2022/06/21 12:45:21;;;;;;;0.00;0.00;;;31.40;59.70;;;;;;4878217;29;20053;-84
2022/06/21 12:48:15;;;;;;;0.00;0.00;;;31.40;61.10;;;;;;4861899;29;20064;-84
2022/06/21 12:50:50;;;;;;;0.20;0.15;;;31.70;61.60;;;;;;4878598;29;20480;-84
2022/06/21 12:53:33;;;;;;;0.10;0.10;;;32.10;60.00;;;;;;4878394;29;20040;-84
2022/06/21 12:56:44;;;;;;;0.73;0.73;;;32.20;58.90;;;;;;4866128;29;20357;-86
2022/06/21 12:59:37;;;;;;;0.17;0.13;;;32.20;59.50;;;;;;4842964;29;20476;-86
2022/06/21 13:02:19;;;;;;;0.10;0.10;;;31.50;59.10;;;;;;4863701;29;20193;-86
2022/06/21 13:04:56;;;;;;;0.85;0.57;;;30.50;59.10;;;;;;4875575;29;20086;-86
2022/06/21 13:07:48;;;;;;;0.00;0.00;;;30.00;61.50;;;;;;4867144;29;20037;-86
2022/06/21 13:10:26;;;;;;;0.00;0.00;;;29.90;61.50;;;;;;4881473;29;20510;-86
2022/06/21 13:13:40;;;;;;;0.00;0.00;;;29.50;61.30;;;;;;4882188;29;20105;-85
2022/06/21 13:16:32;;;;;;;0.20;0.13;;;29.00;61.70;;;;;;4854273;29;20049;-86
2022/06/21 13:19:20;;;;;;;0.10;0.10;;;28.60;62.70;;;;;;4865183;29;20105;-86
2022/06/21 13:22:25;;;;;;;0.00;0.00;;;28.50;63.30;;;;;;4880829;29;20494;-87
2022/06/21 13:25:02;;;;;;;0.03;0.03;;;28.30;63.10;;;;;;4880862;29;20053;-87
2022/06/21 13:27:48;;;;;;;0.20;0.20;;;28.30;64.00;;;;;;4865247;29;20045;-87
2022/06/21 13:30:32;;;;;;;0.05;0.05;;;28.10;64.90;;;;;;4892392;29;20052;-85
2022/06/21 13:33:16;;;;;;;0.00;0.00;;;27.90;64.60;;;;;;4871637;29;20053;-85
2022/06/21 13:35:55;;;;;;;0.00;0.00;;;27.90;64.40;;;;;;4865677;29;20563;-87
2022/06/21 13:38:47;;;;;;;0.00;0.00;;;27.90;64.40;;;;;;4880380;29;20058;-87
2022/06/21 13:44:44;;;;;;;0.00;0.00;;;28.30;64.40;;;;;;4880823;29;20092;-87
2022/06/21 13:47:16;;;;;;;1.10;0.10;;;28.20;63.80;;;;;;4880907;29;20045;-84
2022/06/21 13:49:54;;;;;;;0.00;0.00;;;28.10;63.50;;;;;;4885796;29;20053;-85
2022/06/21 13:52:33;;;;;;;0.00;0.00;;;27.90;62.80;;;;;;4880733;29;20049;-85
2022/06/21 13:55:12;;;;;;;0.00;0.00;;;28.10;62.70;;;;;;4880644;29;20487;-84
2022/06/21 13:57:55;;;;;;;0.00;0.00;;;28.40;63.00;;;;;;4862219;29;20085;-84
2022/06/21 14:00:33;;;;;;;0.00;0.00;;;28.30;61.60;;;;;;4863045;29;20041;-85
2022/06/21 14:03:38;;;;;;;0.00;0.00;;;28.40;61.70;;;;;;4865528;29;20040;-85
2022/06/21 14:06:19;;;;;;;0.00;0.00;;;28.60;62.00;;;;;;4880451;29;20056;-84
2022/06/21 14:08:57;;;;;;;0.00;0.00;;;28.30;61.60;;;;;;4865257;29;20052;-84
2022/06/21 14:11:27;;;;;;;0.10;0.10;;;27.60;62.60;;;;;;4879661;29;20033;-84
2022/06/21 14:14:00;;;;;;;0.13;0.08;;;27.00;64.20;;;;;;4864031;29;20048;-84
2022/06/21 14:16:48;;;;;;;0.03;0.03;;;26.50;64.60;;;;;;4865128;29;20200;-85